createdAt,value
2022-08-12T00:00:05.300Z,100.00
2022-08-12T00:02:50.167Z,100.00
2022-08-12T00:05:38.075Z,100.00
2022-08-12T00:08:43.574Z,100.00
2022-08-12T00:11:28.980Z,100.00
2022-08-12T00:14:13.756Z,100.00
2022-08-12T00:16:59.080Z,100.00
2022-08-12T00:19:45.919Z,100.00
2022-08-12T00:22:32.156Z,100.00
2022-08-12T00:25:21.186Z,100.00
2022-08-12T00:28:26.679Z,100.00
2022-08-12T00:31:11.588Z,100.00
2022-08-12T00:33:57.389Z,100.00
2022-08-12T00:36:50.074Z,100.00
2022-08-12T00:39:35.877Z,100.00
2022-08-12T00:42:12.066Z,100.00
2022-08-12T00:44:41.356Z,100.00
2022-08-12T00:47:25.024Z,100.00
2022-08-12T00:49:54.254Z,100.00
2022-08-12T00:52:22.138Z,100.00
2022-08-12T00:54:51.352Z,100.00
2022-08-12T00:57:23.705Z,100.00
2022-08-12T00:59:59.367Z,100.00
2022-08-12T01:02:34.682Z,100.00
2022-08-12T01:05:29.466Z,100.00
2022-08-12T01:08:14.833Z,100.00
2022-08-12T01:11:04.122Z,100.00
2022-08-12T01:13:34.251Z,100.00
2022-08-12T01:16:04.948Z,100.00
2022-08-12T01:18:39.740Z,100.00
2022-08-12T01:21:09.151Z,100.00
2022-08-12T01:23:56.985Z,100.00
2022-08-12T01:26:24.985Z,100.00
2022-08-12T01:28:59.357Z,100.00
2022-08-12T01:31:27.602Z,100.00
2022-08-12T01:34:28.345Z,100.00
2022-08-12T01:36:59.240Z,100.00
2022-08-12T01:39:33.425Z,100.00
2022-08-12T01:42:08.322Z,100.00
2022-08-12T01:44:36.418Z,100.00
2022-08-12T01:47:14.841Z,100.00
2022-08-12T01:50:13.383Z,100.00
2022-08-12T01:52:55.026Z,100.00
2022-08-12T01:55:33.276Z,100.00
2022-08-12T01:58:28.736Z,100.00
2022-08-12T02:01:03.981Z,100.00
2022-08-12T02:03:52.181Z,100.00
2022-08-12T02:06:48.486Z,100.00
2022-08-12T02:09:39.719Z,100.00
2022-08-12T02:12:24.279Z,100.00
2022-08-12T02:15:04.562Z,100.00
2022-08-12T02:17:55.951Z,100.00
2022-08-12T02:20:34.269Z,100.00
2022-08-12T02:23:19.346Z,100.00
2022-08-12T02:25:47.335Z,100.00
2022-08-12T02:28:14.115Z,100.00
2022-08-12T02:30:42.451Z,100.00
2022-08-12T02:33:10.472Z,100.00
2022-08-12T02:35:37.484Z,100.00
2022-08-12T02:38:07.133Z,100.00
2022-08-12T02:40:37.527Z,100.00
2022-08-12T02:43:32.004Z,100.00
2022-08-12T02:46:04.423Z,100.00
2022-08-12T02:48:37.600Z,100.00
2022-08-12T02:51:06.734Z,100.00
2022-08-12T02:53:36.447Z,100.00
2022-08-12T02:56:04.426Z,100.00
2022-08-12T02:58:35.851Z,100.00
2022-08-12T03:01:11.279Z,100.00
2022-08-12T03:03:39.451Z,100.00
2022-08-12T03:06:21.356Z,100.00
2022-08-12T03:08:53.776Z,100.00
2022-08-12T03:11:23.720Z,100.00
2022-08-12T03:13:58.396Z,100.00
2022-08-12T03:16:27.928Z,100.00
2022-08-12T03:18:54.816Z,100.00
2022-08-12T03:21:55.313Z,100.00
2022-08-12T03:24:12.791Z,100.00
2022-08-12T03:26:42.413Z,100.00
2022-08-12T03:29:10.305Z,100.00
2022-08-12T03:31:36.803Z,100.00
2022-08-12T03:34:08.810Z,100.00
2022-08-12T03:36:37.609Z,100.00
2022-08-12T03:39:36.463Z,100.00
2022-08-12T03:42:12.856Z,100.00
2022-08-12T03:45:11.601Z,100.00
2022-08-12T03:48:19.214Z,100.00
2022-08-12T03:51:06.450Z,100.00
2022-08-12T03:53:52.824Z,100.00
2022-08-12T03:56:38.123Z,100.00
2022-08-12T03:59:25.492Z,100.00
2022-08-12T04:01:57.695Z,100.00
2022-08-12T04:04:33.853Z,100.00
2022-08-12T04:07:10.001Z,100.00
2022-08-12T04:09:38.980Z,100.00
2022-08-12T04:12:26.143Z,100.00
2022-08-12T04:14:54.672Z,100.00
2022-08-12T04:17:21.394Z,100.00
2022-08-12T04:19:48.786Z,100.00
2022-08-12T04:22:16.382Z,100.00
2022-08-12T04:24:44.282Z,100.00
2022-08-12T04:27:17.236Z,100.00
2022-08-12T04:30:31.276Z,100.00
2022-08-12T04:32:31.948Z,100.00
2022-08-12T04:34:58.901Z,100.00
2022-08-12T04:37:25.376Z,100.00
2022-08-12T04:39:54.016Z,100.00
2022-08-12T04:42:21.264Z,100.00
2022-08-12T04:44:48.378Z,100.00
2022-08-12T04:47:16.513Z,100.00
2022-08-12T04:49:44.325Z,100.00
2022-08-12T04:52:11.068Z,100.00
2022-08-12T04:54:37.922Z,100.00
2022-08-12T04:57:05.844Z,100.00
2022-08-12T04:59:48.300Z,100.00
2022-08-12T05:02:21.317Z,100.00
2022-08-12T05:04:51.077Z,100.00
2022-08-12T05:07:17.509Z,100.00
2022-08-12T05:10:00.884Z,100.00
2022-08-12T05:12:39.523Z,100.00
2022-08-12T05:15:12.743Z,100.00
2022-08-12T05:17:54.053Z,100.00
2022-08-12T05:20:20.985Z,98.33
2022-08-12T05:22:47.542Z,69.99
2022-08-12T05:25:15.722Z,56.62
2022-08-12T05:27:59.200Z,49.30
2022-08-12T05:30:27.684Z,44.88
2022-08-12T05:33:00.063Z,42.18
2022-08-12T05:35:27.732Z,41.20
2022-08-12T05:38:14.176Z,39.38
2022-08-12T05:40:41.713Z,38.70
2022-08-12T05:43:08.538Z,38.72
2022-08-12T05:45:35.176Z,41.08
2022-08-12T05:48:02.567Z,43.84
2022-08-12T05:50:29.135Z,42.66
2022-08-12T05:52:55.666Z,41.98
2022-08-12T05:55:24.199Z,44.35
2022-08-12T05:57:55.133Z,49.58
2022-08-12T06:00:25.474Z,53.04
2022-08-12T06:02:57.282Z,56.47
2022-08-12T06:05:23.810Z,61.93
2022-08-12T06:08:00.889Z,64.47
2022-08-12T06:10:32.187Z,68.97
2022-08-12T06:13:02.182Z,69.71
2022-08-12T06:15:29.114Z,67.61
2022-08-12T06:18:05.268Z,71.55
2022-08-12T06:20:40.684Z,75.95
2022-08-12T06:23:08.120Z,72.41
2022-08-12T06:25:34.755Z,69.65
2022-08-12T06:28:06.398Z,73.04
2022-08-12T06:30:38.431Z,74.75
2022-08-12T06:33:22.916Z,72.10
2022-08-12T06:35:57.792Z,68.86
2022-08-12T06:38:26.874Z,66.71
2022-08-12T06:41:17.378Z,67.56
2022-08-12T06:44:06.119Z,66.47
2022-08-12T06:46:32.168Z,66.73
2022-08-12T06:48:59.648Z,70.14
2022-08-12T06:51:29.198Z,69.89
2022-08-12T06:53:56.496Z,67.15
2022-08-12T06:56:39.960Z,71.39
2022-08-12T06:59:11.603Z,66.18
2022-08-12T07:01:38.475Z,63.92
2022-08-12T07:04:26.488Z,62.59
2022-08-12T07:06:51.492Z,62.10
2022-08-12T07:10:05.527Z,61.31
2022-08-12T07:12:04.903Z,61.90
2022-08-12T07:14:31.681Z,60.84
2022-08-12T07:17:02.091Z,61.28
2022-08-12T07:19:40.597Z,60.98
2022-08-12T07:22:13.462Z,60.00
2022-08-12T07:24:40.192Z,62.06
2022-08-12T07:27:06.634Z,60.18
2022-08-12T07:30:03.419Z,62.90
2022-08-12T07:32:24.351Z,61.57
2022-08-12T07:34:51.024Z,59.39
2022-08-12T07:37:17.815Z,57.62
2022-08-12T07:39:50.089Z,56.69
2022-08-12T07:42:19.071Z,56.16
2022-08-12T07:44:47.346Z,57.10
2022-08-12T07:47:18.242Z,55.39
2022-08-12T07:50:03.719Z,55.03
2022-08-12T07:52:31.485Z,56.21
2022-08-12T07:54:59.378Z,53.41
2022-08-12T07:57:26.149Z,53.59
2022-08-12T07:59:55.830Z,51.11
2022-08-12T08:02:26.710Z,50.06
2022-08-12T08:04:57.199Z,49.05
2022-08-12T08:07:29.526Z,50.38
2022-08-12T08:10:01.279Z,48.63
2022-08-12T08:12:48.546Z,48.03
2022-08-12T08:15:16.600Z,47.38
2022-08-12T08:17:59.550Z,47.93
2022-08-12T08:20:30.422Z,47.91
2022-08-12T08:22:58.225Z,46.27
2022-08-12T08:25:36.255Z,45.60
2022-08-12T08:28:09.659Z,46.41
2022-08-12T08:30:42.450Z,43.30
2022-08-12T08:33:22.647Z,42.83
2022-08-12T08:35:54.403Z,41.67
2022-08-12T08:38:31.986Z,41.31
2022-08-12T08:42:14.033Z,40.59
2022-08-12T08:44:10.573Z,39.74
2022-08-12T08:46:38.219Z,38.99
2022-08-12T08:49:05.723Z,37.98
2022-08-12T08:51:32.784Z,38.39
2022-08-12T08:53:59.271Z,39.68
2022-08-12T08:56:27.099Z,38.92
2022-08-12T08:58:53.741Z,37.66
2022-08-12T09:01:23.269Z,38.15
2022-08-12T09:05:07.959Z,37.29
2022-08-12T09:06:39.701Z,37.03
2022-08-12T09:12:15.030Z,34.38
2022-08-12T09:14:54.529Z,35.18
2022-08-12T09:17:22.290Z,35.20
2022-08-12T09:19:55.103Z,34.28
2022-08-12T09:22:22.427Z,34.59
2022-08-12T09:24:55.292Z,33.90
2022-08-12T09:27:27.167Z,33.66
2022-08-12T09:30:15.998Z,34.53
2022-08-12T09:33:04.042Z,34.53
2022-08-12T09:35:44.366Z,33.80
2022-08-12T09:38:27.702Z,33.05
2022-08-12T09:42:07.154Z,33.53
2022-08-12T09:44:05.528Z,33.16
2022-08-12T09:46:34.445Z,33.07
2022-08-12T09:49:04.073Z,32.72
2022-08-12T09:51:44.035Z,32.69
2022-08-12T09:54:34.136Z,32.66
2022-08-12T09:57:03.675Z,33.65
2022-08-12T10:00:16.370Z,32.03
2022-08-12T10:02:44.235Z,32.03
2022-08-12T10:05:17.994Z,32.08
2022-08-12T10:07:47.278Z,31.90
2022-08-12T10:10:24.091Z,31.46
2022-08-12T10:13:13.327Z,31.75
2022-08-12T10:16:02.952Z,32.10
2022-08-12T10:18:32.779Z,32.50
2022-08-12T10:21:05.963Z,32.00
2022-08-12T10:23:39.850Z,31.83
2022-08-12T10:26:36.647Z,31.82
2022-08-12T10:30:38.109Z,31.85
2022-08-12T10:32:21.632Z,31.35
2022-08-12T10:34:53.801Z,30.74
2022-08-12T10:38:34.247Z,30.60
2022-08-12T10:40:19.036Z,29.82
2022-08-12T10:43:05.242Z,30.32
2022-08-12T10:45:31.784Z,29.87
2022-08-12T10:48:19.007Z,29.61
2022-08-12T10:50:58.318Z,29.62
2022-08-12T10:53:45.475Z,28.58
2022-08-12T10:56:17.397Z,28.04
2022-08-12T10:58:46.864Z,28.60
2022-08-12T11:03:01.489Z,28.08
2022-08-12T11:04:26.469Z,27.68
2022-08-12T11:07:09.011Z,27.53
2022-08-12T11:09:51.319Z,27.38
2022-08-12T11:12:54.657Z,27.85
2022-08-12T11:15:18.873Z,27.73
2022-08-12T11:17:53.333Z,27.96
2022-08-12T11:20:29.048Z,27.54
2022-08-12T11:22:59.589Z,27.31
2022-08-12T11:25:56.070Z,27.79
2022-08-12T11:28:14.899Z,26.70
2022-08-12T11:30:43.337Z,26.98
2022-08-12T11:33:11.990Z,26.05
2022-08-12T11:35:43.638Z,26.29
2022-08-12T11:38:11.045Z,25.85
2022-08-12T11:40:38.007Z,26.51
2022-08-12T11:43:19.644Z,27.63
2022-08-12T11:45:47.551Z,26.84
2022-08-12T11:48:19.660Z,26.81
2022-08-12T11:50:53.561Z,26.66
2022-08-12T11:53:56.948Z,26.58
2022-08-12T11:56:07.440Z,26.36
2022-08-12T12:00:23.954Z,26.43
2022-08-12T12:02:02.421Z,26.84
2022-08-12T12:04:12.118Z,26.54
2022-08-12T12:06:38.686Z,25.76
2022-08-12T12:09:08.123Z,25.99
2022-08-12T12:11:49.041Z,25.48
2022-08-12T12:14:16.340Z,25.99
2022-08-12T12:16:48.293Z,26.46
2022-08-12T12:19:17.674Z,25.55
2022-08-12T12:21:47.393Z,25.64
2022-08-12T12:24:21.558Z,25.09
2022-08-12T12:26:59.762Z,25.41
2022-08-12T12:30:13.433Z,24.52
2022-08-12T12:32:19.524Z,23.79
2022-08-12T12:35:44.391Z,24.73
2022-08-12T12:38:04.207Z,24.85
2022-08-12T12:40:34.366Z,25.27
2022-08-12T12:43:05.228Z,23.83
2022-08-12T12:45:35.456Z,24.11
2022-08-12T12:48:08.419Z,23.91
2022-08-12T12:50:45.575Z,23.72
2022-08-12T12:54:07.984Z,23.30
2022-08-12T12:56:15.318Z,23.05
2022-08-12T12:58:43.493Z,23.98
2022-08-12T13:01:25.351Z,24.32
2022-08-12T13:03:56.295Z,23.56
2022-08-12T13:06:30.089Z,23.36
2022-08-12T13:09:02.709Z,22.85
2022-08-12T13:11:41.290Z,24.22
2022-08-12T13:14:29.063Z,23.20
2022-08-12T13:16:57.524Z,23.86
2022-08-12T13:19:36.471Z,24.43
2022-08-12T13:22:21.636Z,22.96
2022-08-12T13:24:55.860Z,24.68
2022-08-12T13:27:34.432Z,23.72
2022-08-12T13:30:10.665Z,23.19
2022-08-12T13:32:40.063Z,23.22
2022-08-12T13:35:33.702Z,23.76
2022-08-12T13:37:58.022Z,24.00
2022-08-12T13:40:34.331Z,24.12
2022-08-12T13:43:06.767Z,25.09
2022-08-12T13:45:34.801Z,24.63
2022-08-12T13:48:03.963Z,24.60
2022-08-12T13:50:36.448Z,24.90
2022-08-12T13:53:24.132Z,24.98
2022-08-12T13:55:59.881Z,24.46
2022-08-12T13:58:30.082Z,24.43
2022-08-12T14:00:58.103Z,24.58
2022-08-12T14:03:28.278Z,24.06
2022-08-12T14:06:15.377Z,23.55
2022-08-12T14:08:43.306Z,23.02
2022-08-12T14:11:09.897Z,23.74
2022-08-12T14:14:03.856Z,24.28
2022-08-12T14:16:37.809Z,23.28
2022-08-12T14:19:22.821Z,22.98
2022-08-12T14:22:00.688Z,23.72
2022-08-12T14:24:35.123Z,23.33
2022-08-12T14:27:08.708Z,22.71
2022-08-12T14:29:38.136Z,23.03
2022-08-12T14:32:23.703Z,22.88
2022-08-12T14:34:51.372Z,23.11
2022-08-12T14:37:56.236Z,23.32
2022-08-12T14:40:06.386Z,23.51
2022-08-12T14:42:33.049Z,23.42
2022-08-12T14:45:01.885Z,24.25
2022-08-12T14:47:35.054Z,23.57
2022-08-12T14:50:37.410Z,23.50
2022-08-12T14:58:27.793Z,22.75
2022-08-12T15:01:13.880Z,23.07
2022-08-12T15:03:52.779Z,23.49
2022-08-12T15:06:39.834Z,22.46
2022-08-12T15:09:16.339Z,22.20
2022-08-12T15:11:48.848Z,22.53
2022-08-12T15:14:26.575Z,22.09
2022-08-12T15:16:54.416Z,23.13
2022-08-12T15:20:28.634Z,22.08
2022-08-12T15:22:38.834Z,23.31
2022-08-12T15:24:54.648Z,21.66
2022-08-12T15:27:22.430Z,22.49
2022-08-12T15:29:58.555Z,22.15
2022-08-12T15:32:30.495Z,22.28
2022-08-12T15:35:00.314Z,22.21
2022-08-12T15:38:08.867Z,22.96
2022-08-12T15:40:14.362Z,23.03
2022-08-12T15:42:50.949Z,23.44
2022-08-12T15:45:23.644Z,23.41
2022-08-12T15:47:53.136Z,23.64
2022-08-12T15:50:32.457Z,23.28
2022-08-12T15:53:13.782Z,23.48
2022-08-12T15:55:46.159Z,23.85
2022-08-12T15:58:16.902Z,24.21
2022-08-12T16:00:43.760Z,24.57
2022-08-12T16:03:13.527Z,23.99
2022-08-12T16:06:19.040Z,23.95
2022-08-12T16:08:29.750Z,24.58
2022-08-12T16:10:57.604Z,24.88
2022-08-12T16:13:34.140Z,24.64
2022-08-12T16:16:23.124Z,24.84
2022-08-12T16:18:52.697Z,25.04
2022-08-12T16:21:51.147Z,24.80
2022-08-12T16:24:11.748Z,24.53
2022-08-12T16:26:40.548Z,24.07
2022-08-12T16:29:15.011Z,24.00
2022-08-12T16:31:44.170Z,24.65
2022-08-12T16:34:39.867Z,24.66
2022-08-12T16:37:03.101Z,24.11
2022-08-12T16:39:35.626Z,25.05
2022-08-12T16:42:22.611Z,25.06
2022-08-12T16:45:02.612Z,24.91
2022-08-12T16:47:36.755Z,24.53
2022-08-12T16:50:19.372Z,25.02
2022-08-12T16:52:50.167Z,24.73
2022-08-12T16:55:18.770Z,24.98
2022-08-12T16:57:48.571Z,25.47
2022-08-12T17:00:17.237Z,25.27
2022-08-12T17:02:45.001Z,25.67
2022-08-12T17:05:25.030Z,26.01
2022-08-12T17:07:59.753Z,26.29
2022-08-12T17:10:35.896Z,25.79
2022-08-12T17:13:09.429Z,24.92
2022-08-12T17:15:57.865Z,25.73
2022-08-12T17:18:43.053Z,25.66
2022-08-12T17:21:17.317Z,25.83
2022-08-12T17:23:53.076Z,26.09
2022-08-12T17:26:22.316Z,25.89
2022-08-12T17:28:56.051Z,26.52
2022-08-12T17:32:00.590Z,26.97
2022-08-12T17:34:29.567Z,26.78
2022-08-12T17:36:58.747Z,25.73
2022-08-12T17:40:15.818Z,27.21
2022-08-12T17:42:34.549Z,27.42
2022-08-12T17:45:17.494Z,27.15
2022-08-12T17:48:02.121Z,27.22
2022-08-12T17:50:36.670Z,27.43
2022-08-12T17:53:03.979Z,27.81
2022-08-12T17:55:43.457Z,27.82
2022-08-12T17:58:14.051Z,28.69
2022-08-12T18:00:44.059Z,28.06
2022-08-12T18:03:14.295Z,28.53
2022-08-12T18:06:07.589Z,28.85
2022-08-12T18:08:54.917Z,29.05
2022-08-12T18:12:06.438Z,29.30
2022-08-12T18:14:30.082Z,29.57
2022-08-12T18:17:00.811Z,30.06
2022-08-12T18:20:03.741Z,30.09
2022-08-12T18:22:22.033Z,29.99
2022-08-12T18:25:03.795Z,30.98
2022-08-12T18:27:44.685Z,31.14
2022-08-12T18:30:20.943Z,32.01
2022-08-12T18:33:03.965Z,32.54
2022-08-12T18:35:47.249Z,32.40
2022-08-12T18:38:22.333Z,32.59
2022-08-12T18:41:09.812Z,33.11
2022-08-12T18:44:00.151Z,33.59
2022-08-12T18:46:55.469Z,33.77
2022-08-12T18:49:29.648Z,33.98
2022-08-12T18:52:02.186Z,34.48
2022-08-12T18:54:32.290Z,35.04
2022-08-12T18:57:04.678Z,36.19
2022-08-12T19:00:02.371Z,36.50
2022-08-12T19:02:23.265Z,37.75
2022-08-12T19:04:53.416Z,38.44
2022-08-12T19:07:22.960Z,38.80
2022-08-12T19:09:58.805Z,39.09
2022-08-12T19:12:57.166Z,39.86
2022-08-12T19:15:26.676Z,40.38
2022-08-12T19:18:00.714Z,41.25
2022-08-12T19:20:30.659Z,42.31
2022-08-12T19:23:02.312Z,42.80
2022-08-12T19:26:00.303Z,43.47
2022-08-12T19:28:29.643Z,44.07
2022-08-12T19:31:17.578Z,44.42
2022-08-12T19:34:00.898Z,45.59
2022-08-12T19:36:34.518Z,47.40
2022-08-12T19:39:02.889Z,49.12
2022-08-12T19:42:00.628Z,49.87
2022-08-12T19:44:28.848Z,51.05
2022-08-12T19:46:55.965Z,51.69
2022-08-12T19:49:23.053Z,52.42
2022-08-12T19:51:50.506Z,53.44
2022-08-12T19:54:30.271Z,54.11
2022-08-12T19:56:58.453Z,54.92
2022-08-12T19:59:42.955Z,57.04
2022-08-12T20:02:33.196Z,59.57
2022-08-12T20:06:03.187Z,60.02
2022-08-12T20:07:57.032Z,60.37
2022-08-12T20:10:35.485Z,61.21
2022-08-12T20:13:17.599Z,62.63
2022-08-12T20:15:45.760Z,63.62
2022-08-12T20:18:19.136Z,62.54
2022-08-12T20:21:00.045Z,62.48
2022-08-12T20:23:50.476Z,62.22
2022-08-12T20:26:17.449Z,62.09
2022-08-12T20:28:45.368Z,63.01
2022-08-12T20:31:12.206Z,63.29
2022-08-12T20:33:50.707Z,64.60
2022-08-12T20:36:41.006Z,64.22
2022-08-12T20:39:33.775Z,63.72
2022-08-12T20:42:01.791Z,63.87
2022-08-12T20:44:34.312Z,63.64
2022-08-12T20:47:18.054Z,64.68
2022-08-12T20:49:55.529Z,64.23
2022-08-12T20:52:30.063Z,63.40
2022-08-12T20:54:57.954Z,58.82
2022-08-12T20:57:25.116Z,61.42
2022-08-12T21:00:16.420Z,60.66
2022-08-12T21:02:49.808Z,61.10
2022-08-12T21:06:09.416Z,59.77
2022-08-12T21:08:24.758Z,61.74
2022-08-12T21:10:51.467Z,61.76
2022-08-12T21:13:20.439Z,62.28
2022-08-12T21:15:55.152Z,59.09
2022-08-12T21:18:29.124Z,58.69
2022-08-12T21:20:58.786Z,58.35
2022-08-12T21:23:30.760Z,58.05
2022-08-12T21:26:05.991Z,58.90
2022-08-12T21:28:38.317Z,56.34
2022-08-12T21:32:34.764Z,56.85
2022-08-12T21:34:06.756Z,57.38
2022-08-12T21:36:43.207Z,56.05
2022-08-12T21:39:35.782Z,56.91
2022-08-12T21:42:06.705Z,56.06
2022-08-12T21:45:48.036Z,55.67
2022-08-12T21:47:23.197Z,55.79
2022-08-12T21:50:06.130Z,55.61
2022-08-12T21:52:48.858Z,55.06
2022-08-12T21:55:18.340Z,55.18
2022-08-12T21:57:50.684Z,54.93
2022-08-12T22:00:32.934Z,53.63
2022-08-12T22:04:04.219Z,51.86
2022-08-12T22:06:30.723Z,52.22
2022-08-12T22:09:15.757Z,52.83
2022-08-12T22:11:56.240Z,52.45
2022-08-12T22:14:28.573Z,52.79
2022-08-12T22:16:56.386Z,51.89
2022-08-12T22:19:23.473Z,50.79
2022-08-12T22:21:53.058Z,51.05
2022-08-12T22:24:26.230Z,50.43
2022-08-12T22:26:57.068Z,50.88
2022-08-12T22:29:42.709Z,51.64
2022-08-12T22:32:11.519Z,50.84
2022-08-12T22:34:39.179Z,51.71
2022-08-12T22:37:11.311Z,52.73
2022-08-12T22:39:46.323Z,52.75
2022-08-12T22:42:34.127Z,52.85
2022-08-12T22:45:22.972Z,53.49
2022-08-12T22:47:55.386Z,53.92
2022-08-12T22:50:28.852Z,53.36
2022-08-12T22:53:17.164Z,54.49
2022-08-12T22:56:00.193Z,53.53
2022-08-12T22:58:33.572Z,53.90
2022-08-12T23:01:01.984Z,53.08
2022-08-12T23:03:49.192Z,53.69
2022-08-12T23:06:21.283Z,53.41
2022-08-12T23:08:48.193Z,53.56
2022-08-12T23:11:16.191Z,54.08
2022-08-12T23:13:56.037Z,56.04
2022-08-12T23:16:31.481Z,56.83
2022-08-12T23:19:10.046Z,56.28
2022-08-12T23:22:05.953Z,57.12
2022-08-12T23:24:38.780Z,57.00
2022-08-12T23:27:50.462Z,58.73
2022-08-12T23:30:17.962Z,58.06
2022-08-12T23:32:45.997Z,57.89
2022-08-12T23:35:22.585Z,57.63
2022-08-12T23:37:53.565Z,57.83
2022-08-12T23:40:22.517Z,57.37
2022-08-12T23:42:54.836Z,57.52
2022-08-12T23:45:30.753Z,56.75
2022-08-12T23:47:59.969Z,57.48
2022-08-12T23:50:34.318Z,57.13
2022-08-12T23:53:05.718Z,58.02
2022-08-12T23:55:38.267Z,58.38
2022-08-12T23:58:21.412Z,59.02
